Terminal Aerodrome Forecast
Issued by NWS Spokane, WA

Home | Current Version | Previous Version | Text Only | Print | Product List | Glossary On
Versions: 1 2 3 4 5 6 7 8 9 10 11 12 13 14 15 16 17 18 19 20 21 22 23 24 25 26 27 28 29
000
FTUS46 KOTX 241729
TAFGEG
TAF
KGEG 241729Z 2418/2518 20018G23KT P6SM -SHRA SCT030 BKN050 BKN200
     FM241940 20018G23KT P6SM SCT030 BKN100 BKN200
     FM250300 23010KT P6SM SCT060
     FM250600 20007KT P6SM SKC=

USA.gov is the U.S. government's official web portal to all federal, state and local government web resources and services.